<?xml version="1.0" encoding="UTF-8"?>
<gpx creator="Wikiloc - https://www.wikiloc.com" version="1.1" xmlns="http://www.topografix.com/GPX/1/1" xmlns:xsi="http://www.w3.org/2001/XMLSchema-instance" xsi:schemaLocation="http://www.topografix.com/GPX/1/1 http://www.topografix.com/GPX/1/1/gpx.xsd">
  <metadata>
    <name>Wikiloc - Itinerario 01 - il poggiolo</name>
    <author>
      <name>owen782</name>
      <link href="https://www.wikiloc.com/wikiloc/user.do?id=5312202">
        <text>owen782 on Wikiloc</text>
      </link>
    </author>
    <link href="https://www.wikiloc.com/hiking-trails/itinerario-01-il-poggiolo-90514185">
      <text>Itinerario 01 - il poggiolo on Wikiloc</text>
    </link>
    <time>2021-12-10T11:06:09Z</time>
  </metadata>
  <wpt lat="43.123514" lon="12.296465">
    <ele>384.5</ele>
    <time>2021-12-10T11:06:16Z</time>
    <name>Partenza/Arrivo</name>
    <cmt></cmt>
    <desc></desc>
  </wpt>
  <wpt lat="43.123609" lon="12.296355">
    <ele>383.8</ele>
    <time>2021-12-10T11:06:24Z</time>
    <name>Parcheggio</name>
    <cmt></cmt>
    <desc></desc>
  </wpt>
  <wpt lat="43.123567" lon="12.296626">
    <ele>385.7</ele>
    <time>2021-12-10T11:06:31Z</time>
    <name>Area pic-nic</name>
    <cmt></cmt>
    <desc></desc>
  </wpt>
  <wpt lat="43.126281" lon="12.303922">
    <ele>566.7</ele>
    <time>2021-12-10T11:06:35Z</time>
    <name>Belvedere</name>
    <cmt></cmt>
    <desc></desc>
  </wpt>
  <wpt lat="43.121573" lon="12.303220">
    <ele>528.6</ele>
    <time>2021-12-10T11:06:40Z</time>
    <name>Calcinaia</name>
    <cmt></cmt>
    <desc></desc>
  </wpt>
  <wpt lat="43.120749" lon="12.289586">
    <ele>386.5</ele>
    <time>2021-12-10T11:06:45Z</time>
    <name>Cimitero di Corciano</name>
    <cmt>CIMITERO CORCIANO</cmt>
    <desc>CIMITERO CORCIANO</desc>
  </wpt>
  <wpt lat="43.128748" lon="12.287462">
    <ele>405.6</ele>
    <time>2021-12-10T11:06:50Z</time>
    <name>CORCIANO</name>
    <cmt>CORCIANO</cmt>
    <desc>CORCIANO</desc>
  </wpt>
  <wpt lat="43.132647" lon="12.306394">
    <ele>521.3</ele>
    <time>2021-12-10T11:06:55Z</time>
    <name>Eremo di San Salvatore</name>
    <cmt>Eremo di San Salvatore</cmt>
    <desc>Eremo di San Salvatore</desc>
  </wpt>
  <wpt lat="43.122621" lon="12.310582">
    <ele>639.3</ele>
    <time>2021-12-10T11:07:10Z</time>
    <name>Parco del Colle della Trinità</name>
    <cmt>Parco del Colle della Trinità</cmt>
    <desc>Parco del Colle della Trinità</desc>
  </wpt>
  <wpt lat="43.129760" lon="12.315531">
    <ele>585.3</ele>
    <time>2021-12-10T11:07:21Z</time>
    <name>Podere Le Trosce</name>
    <cmt>Podere Le Trosce</cmt>
    <desc>Podere Le Trosce</desc>
  </wpt>
  <wpt lat="43.125537" lon="12.288642">
    <ele>397.9</ele>
    <time>2021-12-10T11:07:29Z</time>
    <name>Ex Convento Sant'Agostino</name>
    <cmt>SANT'AGOSTINO CORCIANO</cmt>
    <desc>SANT'AGOSTINO CORCIANO</desc>
  </wpt>
  <wpt lat="43.124971" lon="12.299590">
    <ele>449.8</ele>
    <time>2021-12-10T11:07:40Z</time>
    <name>Al romitorio di San Salvatore e Itinerario M19</name>
    <cmt></cmt>
    <desc></desc>
  </wpt>
  <trk>
    <name>Itinerario 01 - il poggiolo</name>
    <cmt></cmt>
    <desc></desc>
    <trkseg>
      <trkpt lat="43.123514" lon="12.296465">
        <ele>384.568</ele>
        <time>2021-12-10T12:24:05Z</time>
      </trkpt>
      <trkpt lat="43.123513" lon="12.296473">
        <ele>384.642</ele>
        <time>2021-12-10T12:24:45Z</time>
      </trkpt>
      <trkpt lat="43.123488" lon="12.296571">
        <ele>385.326</ele>
        <time>2021-12-10T12:25:25Z</time>
      </trkpt>
      <trkpt lat="43.123497" lon="12.296715">
        <ele>386.608</ele>
        <time>2021-12-10T12:26:05Z</time>
      </trkpt>
      <trkpt lat="43.123501" lon="12.296973">
        <ele>389.645</ele>
        <time>2021-12-10T12:26:45Z</time>
      </trkpt>
      <trkpt lat="43.123495" lon="12.297182">
        <ele>392.426</ele>
        <time>2021-12-10T12:27:25Z</time>
      </trkpt>
      <trkpt lat="43.123480" lon="12.297275">
        <ele>393.671</ele>
        <time>2021-12-10T12:28:05Z</time>
      </trkpt>
      <trkpt lat="43.123378" lon="12.297478">
        <ele>395.447</ele>
        <time>2021-12-10T12:28:45Z</time>
      </trkpt>
      <trkpt lat="43.123354" lon="12.297574">
        <ele>395.920</ele>
        <time>2021-12-10T12:29:25Z</time>
      </trkpt>
      <trkpt lat="43.123368" lon="12.297698">
        <ele>397.237</ele>
        <time>2021-12-10T12:30:05Z</time>
      </trkpt>
      <trkpt lat="43.123352" lon="12.297933">
        <ele>399.254</ele>
        <time>2021-12-10T12:30:45Z</time>
      </trkpt>
      <trkpt lat="43.123398" lon="12.298114">
        <ele>402.211</ele>
        <time>2021-12-10T12:31:25Z</time>
      </trkpt>
      <trkpt lat="43.123484" lon="12.298484">
        <ele>406.932</ele>
        <time>2021-12-10T12:32:05Z</time>
      </trkpt>
      <trkpt lat="43.123556" lon="12.298717">
        <ele>410.892</ele>
        <time>2021-12-10T12:32:45Z</time>
      </trkpt>
      <trkpt lat="43.123568" lon="12.298797">
        <ele>411.611</ele>
        <time>2021-12-10T12:33:25Z</time>
      </trkpt>
      <trkpt lat="43.123692" lon="12.299068">
        <ele>418.508</ele>
        <time>2021-12-10T12:34:05Z</time>
      </trkpt>
      <trkpt lat="43.123796" lon="12.299238">
        <ele>423.832</ele>
        <time>2021-12-10T12:34:45Z</time>
      </trkpt>
      <trkpt lat="43.123990" lon="12.299463">
        <ele>431.763</ele>
        <time>2021-12-10T12:35:25Z</time>
      </trkpt>
      <trkpt lat="43.124112" lon="12.299631">
        <ele>436.628</ele>
        <time>2021-12-10T12:36:05Z</time>
      </trkpt>
      <trkpt lat="43.124204" lon="12.299768">
        <ele>440.654</ele>
        <time>2021-12-10T12:36:45Z</time>
      </trkpt>
      <trkpt lat="43.124219" lon="12.299914">
        <ele>443.597</ele>
        <time>2021-12-10T12:37:25Z</time>
      </trkpt>
      <trkpt lat="43.124195" lon="12.299940">
        <ele>443.554</ele>
        <time>2021-12-10T12:38:05Z</time>
      </trkpt>
      <trkpt lat="43.124149" lon="12.299977">
        <ele>443.321</ele>
        <time>2021-12-10T12:38:45Z</time>
      </trkpt>
      <trkpt lat="43.123900" lon="12.300129">
        <ele>442.448</ele>
        <time>2021-12-10T12:39:25Z</time>
      </trkpt>
      <trkpt lat="43.123749" lon="12.300252">
        <ele>443.769</ele>
        <time>2021-12-10T12:40:05Z</time>
      </trkpt>
      <trkpt lat="43.123708" lon="12.300316">
        <ele>444.804</ele>
        <time>2021-12-10T12:40:45Z</time>
      </trkpt>
      <trkpt lat="43.123650" lon="12.300436">
        <ele>446.424</ele>
        <time>2021-12-10T12:41:25Z</time>
      </trkpt>
      <trkpt lat="43.123592" lon="12.300617">
        <ele>448.608</ele>
        <time>2021-12-10T12:42:05Z</time>
      </trkpt>
      <trkpt lat="43.123584" lon="12.300669">
        <ele>449.275</ele>
        <time>2021-12-10T12:42:45Z</time>
      </trkpt>
      <trkpt lat="43.123588" lon="12.300708">
        <ele>449.816</ele>
        <time>2021-12-10T12:43:25Z</time>
      </trkpt>
      <trkpt lat="43.123595" lon="12.300900">
        <ele>453.081</ele>
        <time>2021-12-10T12:44:05Z</time>
      </trkpt>
      <trkpt lat="43.123480" lon="12.301156">
        <ele>456.257</ele>
        <time>2021-12-10T12:44:45Z</time>
      </trkpt>
      <trkpt lat="43.123473" lon="12.301246">
        <ele>458.490</ele>
        <time>2021-12-10T12:45:25Z</time>
      </trkpt>
      <trkpt lat="43.123410" lon="12.301330">
        <ele>460.017</ele>
        <time>2021-12-10T12:46:05Z</time>
      </trkpt>
      <trkpt lat="43.123344" lon="12.301396">
        <ele>461.334</ele>
        <time>2021-12-10T12:46:45Z</time>
      </trkpt>
      <trkpt lat="43.123324" lon="12.301412">
        <ele>461.911</ele>
        <time>2021-12-10T12:47:25Z</time>
      </trkpt>
      <trkpt lat="43.123240" lon="12.301413">
        <ele>463.747</ele>
        <time>2021-12-10T12:48:05Z</time>
      </trkpt>
      <trkpt lat="43.123142" lon="12.301316">
        <ele>463.229</ele>
        <time>2021-12-10T12:48:45Z</time>
      </trkpt>
      <trkpt lat="43.122679" lon="12.301070">
        <ele>470.421</ele>
        <time>2021-12-10T12:49:25Z</time>
      </trkpt>
      <trkpt lat="43.122507" lon="12.300991">
        <ele>471.308</ele>
        <time>2021-12-10T12:50:05Z</time>
      </trkpt>
      <trkpt lat="43.122480" lon="12.300948">
        <ele>470.723</ele>
        <time>2021-12-10T12:50:45Z</time>
      </trkpt>
      <trkpt lat="43.122467" lon="12.300911">
        <ele>470.084</ele>
        <time>2021-12-10T12:51:25Z</time>
      </trkpt>
      <trkpt lat="43.122422" lon="12.300886">
        <ele>470.029</ele>
        <time>2021-12-10T12:52:05Z</time>
      </trkpt>
      <trkpt lat="43.122366" lon="12.300888">
        <ele>470.685</ele>
        <time>2021-12-10T12:52:45Z</time>
      </trkpt>
      <trkpt lat="43.122334" lon="12.300891">
        <ele>471.098</ele>
        <time>2021-12-10T12:53:25Z</time>
      </trkpt>
      <trkpt lat="43.122224" lon="12.300907">
        <ele>472.665</ele>
        <time>2021-12-10T12:54:05Z</time>
      </trkpt>
      <trkpt lat="43.122160" lon="12.300962">
        <ele>474.042</ele>
        <time>2021-12-10T12:54:45Z</time>
      </trkpt>
      <trkpt lat="43.122084" lon="12.300986">
        <ele>474.839</ele>
        <time>2021-12-10T12:55:25Z</time>
      </trkpt>
      <trkpt lat="43.122028" lon="12.301031">
        <ele>476.017</ele>
        <time>2021-12-10T12:56:05Z</time>
      </trkpt>
      <trkpt lat="43.121966" lon="12.301053">
        <ele>476.787</ele>
        <time>2021-12-10T12:56:45Z</time>
      </trkpt>
      <trkpt lat="43.121860" lon="12.301180">
        <ele>480.315</ele>
        <time>2021-12-10T12:57:25Z</time>
      </trkpt>
      <trkpt lat="43.121774" lon="12.301271">
        <ele>483.308</ele>
        <time>2021-12-10T12:58:05Z</time>
      </trkpt>
      <trkpt lat="43.121712" lon="12.301367">
        <ele>486.170</ele>
        <time>2021-12-10T12:58:45Z</time>
      </trkpt>
      <trkpt lat="43.121690" lon="12.301414">
        <ele>487.561</ele>
        <time>2021-12-10T12:59:25Z</time>
      </trkpt>
      <trkpt lat="43.121593" lon="12.301516">
        <ele>490.116</ele>
        <time>2021-12-10T13:00:05Z</time>
      </trkpt>
      <trkpt lat="43.121522" lon="12.301572">
        <ele>491.352</ele>
        <time>2021-12-10T13:00:45Z</time>
      </trkpt>
      <trkpt lat="43.121469" lon="12.301655">
        <ele>493.095</ele>
        <time>2021-12-10T13:01:25Z</time>
      </trkpt>
      <trkpt lat="43.121454" lon="12.301735">
        <ele>495.092</ele>
        <time>2021-12-10T13:02:05Z</time>
      </trkpt>
      <trkpt lat="43.121392" lon="12.301766">
        <ele>495.549</ele>
        <time>2021-12-10T13:02:45Z</time>
      </trkpt>
      <trkpt lat="43.121296" lon="12.301926">
        <ele>497.966</ele>
        <time>2021-12-10T13:03:25Z</time>
      </trkpt>
      <trkpt lat="43.121243" lon="12.302009">
        <ele>498.991</ele>
        <time>2021-12-10T13:04:05Z</time>
      </trkpt>
      <trkpt lat="43.121190" lon="12.302123">
        <ele>500.581</ele>
        <time>2021-12-10T13:04:45Z</time>
      </trkpt>
      <trkpt lat="43.121123" lon="12.302209">
        <ele>501.019</ele>
        <time>2021-12-10T13:05:25Z</time>
      </trkpt>
      <trkpt lat="43.121024" lon="12.302397">
        <ele>503.808</ele>
        <time>2021-12-10T13:06:05Z</time>
      </trkpt>
      <trkpt lat="43.120971" lon="12.302502">
        <ele>505.528</ele>
        <time>2021-12-10T13:06:45Z</time>
      </trkpt>
      <trkpt lat="43.120954" lon="12.302595">
        <ele>507.699</ele>
        <time>2021-12-10T13:07:25Z</time>
      </trkpt>
      <trkpt lat="43.120949" lon="12.302846">
        <ele>513.554</ele>
        <time>2021-12-10T13:08:05Z</time>
      </trkpt>
      <trkpt lat="43.120902" lon="12.303092">
        <ele>517.410</ele>
        <time>2021-12-10T13:08:45Z</time>
      </trkpt>
      <trkpt lat="43.120894" lon="12.303424">
        <ele>520.023</ele>
        <time>2021-12-10T13:09:25Z</time>
      </trkpt>
      <trkpt lat="43.120922" lon="12.303556">
        <ele>520.610</ele>
        <time>2021-12-10T13:10:05Z</time>
      </trkpt>
      <trkpt lat="43.120932" lon="12.303670">
        <ele>521.147</ele>
        <time>2021-12-10T13:10:45Z</time>
      </trkpt>
      <trkpt lat="43.120940" lon="12.303775">
        <ele>521.744</ele>
        <time>2021-12-10T13:11:25Z</time>
      </trkpt>
      <trkpt lat="43.120953" lon="12.303793">
        <ele>522.116</ele>
        <time>2021-12-10T13:12:05Z</time>
      </trkpt>
      <trkpt lat="43.120970" lon="12.303783">
        <ele>522.676</ele>
        <time>2021-12-10T13:12:45Z</time>
      </trkpt>
      <trkpt lat="43.121058" lon="12.303752">
        <ele>525.013</ele>
        <time>2021-12-10T13:13:25Z</time>
      </trkpt>
      <trkpt lat="43.121086" lon="12.303782">
        <ele>525.908</ele>
        <time>2021-12-10T13:14:05Z</time>
      </trkpt>
      <trkpt lat="43.121092" lon="12.303770">
        <ele>526.010</ele>
        <time>2021-12-10T13:14:45Z</time>
      </trkpt>
      <trkpt lat="43.121091" lon="12.303737">
        <ele>525.911</ele>
        <time>2021-12-10T13:15:25Z</time>
      </trkpt>
      <trkpt lat="43.121065" lon="12.303653">
        <ele>524.866</ele>
        <time>2021-12-10T13:16:05Z</time>
      </trkpt>
      <trkpt lat="43.121070" lon="12.303589">
        <ele>524.752</ele>
        <time>2021-12-10T13:16:45Z</time>
      </trkpt>
      <trkpt lat="43.121128" lon="12.303622">
        <ele>526.595</ele>
        <time>2021-12-10T13:17:25Z</time>
      </trkpt>
      <trkpt lat="43.121159" lon="12.303592">
        <ele>527.052</ele>
        <time>2021-12-10T13:18:05Z</time>
      </trkpt>
      <trkpt lat="43.121203" lon="12.303545">
        <ele>527.759</ele>
        <time>2021-12-10T13:18:45Z</time>
      </trkpt>
      <trkpt lat="43.121213" lon="12.303533">
        <ele>527.826</ele>
        <time>2021-12-10T13:19:25Z</time>
      </trkpt>
      <trkpt lat="43.121213" lon="12.303527">
        <ele>527.758</ele>
        <time>2021-12-10T13:20:05Z</time>
      </trkpt>
      <trkpt lat="43.121268" lon="12.303483">
        <ele>528.552</ele>
        <time>2021-12-10T13:20:45Z</time>
      </trkpt>
      <trkpt lat="43.121275" lon="12.303486">
        <ele>528.717</ele>
        <time>2021-12-10T13:21:25Z</time>
      </trkpt>
      <trkpt lat="43.121280" lon="12.303502">
        <ele>529.008</ele>
        <time>2021-12-10T13:22:05Z</time>
      </trkpt>
      <trkpt lat="43.121393" lon="12.303438">
        <ele>530.534</ele>
        <time>2021-12-10T13:22:45Z</time>
      </trkpt>
      <trkpt lat="43.121395" lon="12.303435">
        <ele>530.555</ele>
        <time>2021-12-10T13:23:25Z</time>
      </trkpt>
      <trkpt lat="43.121374" lon="12.303418">
        <ele>529.940</ele>
        <time>2021-12-10T13:24:05Z</time>
      </trkpt>
      <trkpt lat="43.121430" lon="12.303328">
        <ele>529.286</ele>
        <time>2021-12-10T13:24:45Z</time>
      </trkpt>
      <trkpt lat="43.121478" lon="12.303300">
        <ele>529.159</ele>
        <time>2021-12-10T13:25:25Z</time>
      </trkpt>
      <trkpt lat="43.121477" lon="12.303282">
        <ele>528.816</ele>
        <time>2021-12-10T13:26:05Z</time>
      </trkpt>
      <trkpt lat="43.121498" lon="12.303263">
        <ele>528.633</ele>
        <time>2021-12-10T13:26:45Z</time>
      </trkpt>
      <trkpt lat="43.121514" lon="12.303264">
        <ele>528.880</ele>
        <time>2021-12-10T13:27:25Z</time>
      </trkpt>
      <trkpt lat="43.121539" lon="12.303272">
        <ele>529.183</ele>
        <time>2021-12-10T13:28:05Z</time>
      </trkpt>
      <trkpt lat="43.121559" lon="12.303267">
        <ele>529.225</ele>
        <time>2021-12-10T13:28:45Z</time>
      </trkpt>
      <trkpt lat="43.121561" lon="12.303265">
        <ele>529.217</ele>
        <time>2021-12-10T13:29:25Z</time>
      </trkpt>
      <trkpt lat="43.121558" lon="12.303244">
        <ele>528.808</ele>
        <time>2021-12-10T13:30:05Z</time>
      </trkpt>
      <trkpt lat="43.121587" lon="12.303229">
        <ele>528.857</ele>
        <time>2021-12-10T13:30:45Z</time>
      </trkpt>
      <trkpt lat="43.121587" lon="12.303226">
        <ele>528.888</ele>
        <time>2021-12-10T13:31:25Z</time>
      </trkpt>
      <trkpt lat="43.121596" lon="12.303218">
        <ele>528.793</ele>
        <time>2021-12-10T13:32:05Z</time>
      </trkpt>
      <trkpt lat="43.121610" lon="12.303216">
        <ele>528.889</ele>
        <time>2021-12-10T13:32:45Z</time>
      </trkpt>
      <trkpt lat="43.121632" lon="12.303197">
        <ele>528.782</ele>
        <time>2021-12-10T13:33:25Z</time>
      </trkpt>
      <trkpt lat="43.121637" lon="12.303176">
        <ele>528.559</ele>
        <time>2021-12-10T13:34:05Z</time>
      </trkpt>
      <trkpt lat="43.121674" lon="12.303231">
        <ele>529.696</ele>
        <time>2021-12-10T13:34:45Z</time>
      </trkpt>
      <trkpt lat="43.121688" lon="12.303222">
        <ele>529.543</ele>
        <time>2021-12-10T13:35:25Z</time>
      </trkpt>
      <trkpt lat="43.121708" lon="12.303205">
        <ele>529.453</ele>
        <time>2021-12-10T13:36:05Z</time>
      </trkpt>
      <trkpt lat="43.121709" lon="12.303197">
        <ele>529.304</ele>
        <time>2021-12-10T13:36:45Z</time>
      </trkpt>
      <trkpt lat="43.121723" lon="12.303177">
        <ele>529.014</ele>
        <time>2021-12-10T13:37:25Z</time>
      </trkpt>
      <trkpt lat="43.121782" lon="12.303214">
        <ele>529.908</ele>
        <time>2021-12-10T13:38:05Z</time>
      </trkpt>
      <trkpt lat="43.121782" lon="12.303200">
        <ele>529.774</ele>
        <time>2021-12-10T13:38:45Z</time>
      </trkpt>
      <trkpt lat="43.121786" lon="12.303134">
        <ele>528.775</ele>
        <time>2021-12-10T13:39:25Z</time>
      </trkpt>
      <trkpt lat="43.121790" lon="12.303126">
        <ele>528.670</ele>
        <time>2021-12-10T13:40:05Z</time>
      </trkpt>
      <trkpt lat="43.121798" lon="12.303110">
        <ele>528.356</ele>
        <time>2021-12-10T13:40:45Z</time>
      </trkpt>
      <trkpt lat="43.121806" lon="12.303094">
        <ele>528.179</ele>
        <time>2021-12-10T13:41:25Z</time>
      </trkpt>
      <trkpt lat="43.121827" lon="12.303126">
        <ele>528.756</ele>
        <time>2021-12-10T13:42:05Z</time>
      </trkpt>
      <trkpt lat="43.121827" lon="12.303130">
        <ele>528.873</ele>
        <time>2021-12-10T13:42:45Z</time>
      </trkpt>
      <trkpt lat="43.121824" lon="12.303182">
        <ele>529.680</ele>
        <time>2021-12-10T13:43:25Z</time>
      </trkpt>
      <trkpt lat="43.121878" lon="12.303209">
        <ele>530.425</ele>
        <time>2021-12-10T13:44:05Z</time>
      </trkpt>
      <trkpt lat="43.121894" lon="12.303256">
        <ele>531.326</ele>
        <time>2021-12-10T13:44:45Z</time>
      </trkpt>
      <trkpt lat="43.121907" lon="12.303327">
        <ele>532.608</ele>
        <time>2021-12-10T13:45:25Z</time>
      </trkpt>
      <trkpt lat="43.121937" lon="12.303310">
        <ele>532.508</ele>
        <time>2021-12-10T13:46:05Z</time>
      </trkpt>
      <trkpt lat="43.121994" lon="12.303309">
        <ele>532.711</ele>
        <time>2021-12-10T13:46:45Z</time>
      </trkpt>
      <trkpt lat="43.121986" lon="12.303325">
        <ele>533.092</ele>
        <time>2021-12-10T13:47:25Z</time>
      </trkpt>
      <trkpt lat="43.121970" lon="12.303325">
        <ele>532.947</ele>
        <time>2021-12-10T13:48:05Z</time>
      </trkpt>
      <trkpt lat="43.121965" lon="12.303356">
        <ele>533.653</ele>
        <time>2021-12-10T13:48:45Z</time>
      </trkpt>
      <trkpt lat="43.121986" lon="12.303426">
        <ele>535.286</ele>
        <time>2021-12-10T13:49:25Z</time>
      </trkpt>
      <trkpt lat="43.122012" lon="12.303413">
        <ele>535.043</ele>
        <time>2021-12-10T13:50:05Z</time>
      </trkpt>
      <trkpt lat="43.122027" lon="12.303458">
        <ele>536.170</ele>
        <time>2021-12-10T13:50:45Z</time>
      </trkpt>
      <trkpt lat="43.122048" lon="12.303463">
        <ele>536.387</ele>
        <time>2021-12-10T13:51:25Z</time>
      </trkpt>
      <trkpt lat="43.122066" lon="12.303483">
        <ele>536.927</ele>
        <time>2021-12-10T13:52:05Z</time>
      </trkpt>
      <trkpt lat="43.122094" lon="12.303506">
        <ele>537.668</ele>
        <time>2021-12-10T13:52:45Z</time>
      </trkpt>
      <trkpt lat="43.122093" lon="12.303526">
        <ele>538.114</ele>
        <time>2021-12-10T13:53:25Z</time>
      </trkpt>
      <trkpt lat="43.122147" lon="12.303544">
        <ele>538.808</ele>
        <time>2021-12-10T13:54:05Z</time>
      </trkpt>
      <trkpt lat="43.122160" lon="12.303583">
        <ele>539.911</ele>
        <time>2021-12-10T13:54:45Z</time>
      </trkpt>
      <trkpt lat="43.122207" lon="12.303639">
        <ele>541.572</ele>
        <time>2021-12-10T13:55:25Z</time>
      </trkpt>
      <trkpt lat="43.122200" lon="12.303671">
        <ele>542.157</ele>
        <time>2021-12-10T13:56:05Z</time>
      </trkpt>
      <trkpt lat="43.122166" lon="12.303707">
        <ele>542.713</ele>
        <time>2021-12-10T13:56:45Z</time>
      </trkpt>
      <trkpt lat="43.122196" lon="12.303757">
        <ele>544.056</ele>
        <time>2021-12-10T13:57:25Z</time>
      </trkpt>
      <trkpt lat="43.122243" lon="12.303821">
        <ele>545.423</ele>
        <time>2021-12-10T13:58:05Z</time>
      </trkpt>
      <trkpt lat="43.122279" lon="12.303819">
        <ele>545.280</ele>
        <time>2021-12-10T13:58:45Z</time>
      </trkpt>
      <trkpt lat="43.122296" lon="12.303813">
        <ele>545.067</ele>
        <time>2021-12-10T13:59:25Z</time>
      </trkpt>
      <trkpt lat="43.122318" lon="12.303772">
        <ele>544.052</ele>
        <time>2021-12-10T14:00:05Z</time>
      </trkpt>
      <trkpt lat="43.122344" lon="12.303763">
        <ele>543.653</ele>
        <time>2021-12-10T14:00:45Z</time>
      </trkpt>
      <trkpt lat="43.122448" lon="12.303784">
        <ele>543.608</ele>
        <time>2021-12-10T14:01:25Z</time>
      </trkpt>
      <trkpt lat="43.122484" lon="12.303786">
        <ele>543.508</ele>
        <time>2021-12-10T14:02:05Z</time>
      </trkpt>
      <trkpt lat="43.122501" lon="12.303785">
        <ele>543.484</ele>
        <time>2021-12-10T14:02:45Z</time>
      </trkpt>
      <trkpt lat="43.122516" lon="12.303775">
        <ele>542.855</ele>
        <time>2021-12-10T14:03:25Z</time>
      </trkpt>
      <trkpt lat="43.122619" lon="12.303778">
        <ele>540.910</ele>
        <time>2021-12-10T14:04:05Z</time>
      </trkpt>
      <trkpt lat="43.122626" lon="12.303789">
        <ele>541.116</ele>
        <time>2021-12-10T14:04:45Z</time>
      </trkpt>
      <trkpt lat="43.122631" lon="12.303799">
        <ele>541.239</ele>
        <time>2021-12-10T14:05:25Z</time>
      </trkpt>
      <trkpt lat="43.122705" lon="12.303829">
        <ele>540.666</ele>
        <time>2021-12-10T14:06:05Z</time>
      </trkpt>
      <trkpt lat="43.122715" lon="12.303819">
        <ele>540.273</ele>
        <time>2021-12-10T14:06:45Z</time>
      </trkpt>
      <trkpt lat="43.122734" lon="12.303821">
        <ele>539.960</ele>
        <time>2021-12-10T14:07:25Z</time>
      </trkpt>
      <trkpt lat="43.122770" lon="12.303804">
        <ele>538.715</ele>
        <time>2021-12-10T14:08:05Z</time>
      </trkpt>
      <trkpt lat="43.122852" lon="12.303769">
        <ele>535.765</ele>
        <time>2021-12-10T14:08:45Z</time>
      </trkpt>
      <trkpt lat="43.122877" lon="12.303766">
        <ele>535.011</ele>
        <time>2021-12-10T14:09:25Z</time>
      </trkpt>
      <trkpt lat="43.122868" lon="12.303747">
        <ele>534.608</ele>
        <time>2021-12-10T14:10:05Z</time>
      </trkpt>
      <trkpt lat="43.122871" lon="12.303684">
        <ele>532.840</ele>
        <time>2021-12-10T14:10:45Z</time>
      </trkpt>
      <trkpt lat="43.122872" lon="12.303641">
        <ele>531.551</ele>
        <time>2021-12-10T14:11:25Z</time>
      </trkpt>
      <trkpt lat="43.122888" lon="12.303606">
        <ele>530.196</ele>
        <time>2021-12-10T14:12:05Z</time>
      </trkpt>
      <trkpt lat="43.122944" lon="12.303597">
        <ele>528.482</ele>
        <time>2021-12-10T14:12:45Z</time>
      </trkpt>
      <trkpt lat="43.123002" lon="12.303609">
        <ele>527.365</ele>
        <time>2021-12-10T14:13:25Z</time>
      </trkpt>
      <trkpt lat="43.123040" lon="12.303609">
        <ele>526.392</ele>
        <time>2021-12-10T14:14:05Z</time>
      </trkpt>
      <trkpt lat="43.123081" lon="12.303625">
        <ele>525.859</ele>
        <time>2021-12-10T14:14:45Z</time>
      </trkpt>
      <trkpt lat="43.123134" lon="12.303631">
        <ele>524.686</ele>
        <time>2021-12-10T14:15:25Z</time>
      </trkpt>
      <trkpt lat="43.123181" lon="12.303654">
        <ele>524.111</ele>
        <time>2021-12-10T14:16:05Z</time>
      </trkpt>
      <trkpt lat="43.123223" lon="12.303666">
        <ele>523.521</ele>
        <time>2021-12-10T14:16:45Z</time>
      </trkpt>
      <trkpt lat="43.123247" lon="12.303700">
        <ele>524.003</ele>
        <time>2021-12-10T14:17:25Z</time>
      </trkpt>
      <trkpt lat="43.123255" lon="12.303788">
        <ele>526.508</ele>
        <time>2021-12-10T14:18:05Z</time>
      </trkpt>
      <trkpt lat="43.123294" lon="12.303839">
        <ele>527.320</ele>
        <time>2021-12-10T14:18:45Z</time>
      </trkpt>
      <trkpt lat="43.123325" lon="12.303869">
        <ele>527.561</ele>
        <time>2021-12-10T14:19:25Z</time>
      </trkpt>
      <trkpt lat="43.123341" lon="12.303878">
        <ele>527.596</ele>
        <time>2021-12-10T14:20:05Z</time>
      </trkpt>
      <trkpt lat="43.123384" lon="12.303877">
        <ele>526.462</ele>
        <time>2021-12-10T14:20:45Z</time>
      </trkpt>
      <trkpt lat="43.123417" lon="12.303887">
        <ele>525.845</ele>
        <time>2021-12-10T14:21:25Z</time>
      </trkpt>
      <trkpt lat="43.123475" lon="12.303875">
        <ele>524.062</ele>
        <time>2021-12-10T14:22:05Z</time>
      </trkpt>
      <trkpt lat="43.123573" lon="12.303895">
        <ele>522.229</ele>
        <time>2021-12-10T14:22:45Z</time>
      </trkpt>
      <trkpt lat="43.123588" lon="12.303911">
        <ele>522.396</ele>
        <time>2021-12-10T14:23:25Z</time>
      </trkpt>
      <trkpt lat="43.123677" lon="12.303952">
        <ele>523.244</ele>
        <time>2021-12-10T14:24:05Z</time>
      </trkpt>
      <trkpt lat="43.123705" lon="12.303958">
        <ele>523.505</ele>
        <time>2021-12-10T14:24:45Z</time>
      </trkpt>
      <trkpt lat="43.123779" lon="12.303952">
        <ele>523.515</ele>
        <time>2021-12-10T14:25:25Z</time>
      </trkpt>
      <trkpt lat="43.123836" lon="12.304010">
        <ele>525.408</ele>
        <time>2021-12-10T14:26:05Z</time>
      </trkpt>
      <trkpt lat="43.123836" lon="12.304029">
        <ele>525.933</ele>
        <time>2021-12-10T14:26:45Z</time>
      </trkpt>
      <trkpt lat="43.123868" lon="12.304070">
        <ele>527.214</ele>
        <time>2021-12-10T14:27:25Z</time>
      </trkpt>
      <trkpt lat="43.123908" lon="12.304048">
        <ele>526.939</ele>
        <time>2021-12-10T14:28:05Z</time>
      </trkpt>
      <trkpt lat="43.123988" lon="12.303986">
        <ele>526.635</ele>
        <time>2021-12-10T14:28:45Z</time>
      </trkpt>
      <trkpt lat="43.124043" lon="12.303932">
        <ele>526.018</ele>
        <time>2021-12-10T14:29:25Z</time>
      </trkpt>
      <trkpt lat="43.124069" lon="12.303909">
        <ele>525.895</ele>
        <time>2021-12-10T14:30:05Z</time>
      </trkpt>
      <trkpt lat="43.124102" lon="12.303840">
        <ele>524.512</ele>
        <time>2021-12-10T14:30:45Z</time>
      </trkpt>
      <trkpt lat="43.124165" lon="12.303788">
        <ele>524.469</ele>
        <time>2021-12-10T14:31:25Z</time>
      </trkpt>
      <trkpt lat="43.124192" lon="12.303782">
        <ele>524.967</ele>
        <time>2021-12-10T14:32:05Z</time>
      </trkpt>
      <trkpt lat="43.124234" lon="12.303782">
        <ele>526.081</ele>
        <time>2021-12-10T14:32:45Z</time>
      </trkpt>
      <trkpt lat="43.124291" lon="12.303823">
        <ele>528.519</ele>
        <time>2021-12-10T14:33:25Z</time>
      </trkpt>
      <trkpt lat="43.124317" lon="12.303866">
        <ele>530.208</ele>
        <time>2021-12-10T14:34:05Z</time>
      </trkpt>
      <trkpt lat="43.124413" lon="12.303869">
        <ele>532.785</ele>
        <time>2021-12-10T14:34:45Z</time>
      </trkpt>
      <trkpt lat="43.124465" lon="12.303808">
        <ele>532.516</ele>
        <time>2021-12-10T14:35:25Z</time>
      </trkpt>
      <trkpt lat="43.124519" lon="12.303790">
        <ele>533.451</ele>
        <time>2021-12-10T14:36:05Z</time>
      </trkpt>
      <trkpt lat="43.124572" lon="12.303748">
        <ele>533.717</ele>
        <time>2021-12-10T14:36:45Z</time>
      </trkpt>
      <trkpt lat="43.124633" lon="12.303726">
        <ele>534.650</ele>
        <time>2021-12-10T14:37:25Z</time>
      </trkpt>
      <trkpt lat="43.124692" lon="12.303731">
        <ele>536.387</ele>
        <time>2021-12-10T14:38:05Z</time>
      </trkpt>
      <trkpt lat="43.124789" lon="12.303725">
        <ele>538.894</ele>
        <time>2021-12-10T14:38:45Z</time>
      </trkpt>
      <trkpt lat="43.124845" lon="12.303719">
        <ele>540.361</ele>
        <time>2021-12-10T14:39:25Z</time>
      </trkpt>
      <trkpt lat="43.124881" lon="12.303728">
        <ele>541.533</ele>
        <time>2021-12-10T14:40:05Z</time>
      </trkpt>
      <trkpt lat="43.124930" lon="12.303765">
        <ele>543.923</ele>
        <time>2021-12-10T14:40:45Z</time>
      </trkpt>
      <trkpt lat="43.124948" lon="12.303811">
        <ele>545.515</ele>
        <time>2021-12-10T14:41:25Z</time>
      </trkpt>
      <trkpt lat="43.124944" lon="12.303861">
        <ele>546.708</ele>
        <time>2021-12-10T14:42:05Z</time>
      </trkpt>
      <trkpt lat="43.124957" lon="12.303919">
        <ele>548.482</ele>
        <time>2021-12-10T14:42:45Z</time>
      </trkpt>
      <trkpt lat="43.125069" lon="12.303811">
        <ele>548.083</ele>
        <time>2021-12-10T14:43:25Z</time>
      </trkpt>
      <trkpt lat="43.125167" lon="12.303735">
        <ele>547.248</ele>
        <time>2021-12-10T14:44:05Z</time>
      </trkpt>
      <trkpt lat="43.125287" lon="12.303640">
        <ele>546.094</ele>
        <time>2021-12-10T14:44:45Z</time>
      </trkpt>
      <trkpt lat="43.125470" lon="12.303478">
        <ele>544.447</ele>
        <time>2021-12-10T14:45:25Z</time>
      </trkpt>
      <trkpt lat="43.125623" lon="12.303363">
        <ele>543.394</ele>
        <time>2021-12-10T14:46:05Z</time>
      </trkpt>
      <trkpt lat="43.125690" lon="12.303325">
        <ele>542.751</ele>
        <time>2021-12-10T14:46:45Z</time>
      </trkpt>
      <trkpt lat="43.125761" lon="12.303304">
        <ele>542.728</ele>
        <time>2021-12-10T14:47:25Z</time>
      </trkpt>
      <trkpt lat="43.125861" lon="12.303254">
        <ele>541.783</ele>
        <time>2021-12-10T14:48:05Z</time>
      </trkpt>
      <trkpt lat="43.125971" lon="12.303200">
        <ele>540.225</ele>
        <time>2021-12-10T14:48:45Z</time>
      </trkpt>
      <trkpt lat="43.126077" lon="12.303180">
        <ele>539.617</ele>
        <time>2021-12-10T14:49:25Z</time>
      </trkpt>
      <trkpt lat="43.126223" lon="12.303153">
        <ele>540.608</ele>
        <time>2021-12-10T14:50:05Z</time>
      </trkpt>
      <trkpt lat="43.126281" lon="12.303148">
        <ele>541.377</ele>
        <time>2021-12-10T14:50:45Z</time>
      </trkpt>
      <trkpt lat="43.126405" lon="12.303120">
        <ele>542.388</ele>
        <time>2021-12-10T14:51:25Z</time>
      </trkpt>
      <trkpt lat="43.126495" lon="12.303120">
        <ele>543.433</ele>
        <time>2021-12-10T14:52:05Z</time>
      </trkpt>
      <trkpt lat="43.126495" lon="12.303094">
        <ele>542.799</ele>
        <time>2021-12-10T14:52:45Z</time>
      </trkpt>
      <trkpt lat="43.126456" lon="12.303053">
        <ele>540.962</ele>
        <time>2021-12-10T14:53:25Z</time>
      </trkpt>
      <trkpt lat="43.126361" lon="12.303021">
        <ele>539.019</ele>
        <time>2021-12-10T14:54:05Z</time>
      </trkpt>
      <trkpt lat="43.126272" lon="12.302978">
        <ele>536.826</ele>
        <time>2021-12-10T14:54:45Z</time>
      </trkpt>
      <trkpt lat="43.126180" lon="12.302933">
        <ele>534.523</ele>
        <time>2021-12-10T14:55:25Z</time>
      </trkpt>
      <trkpt lat="43.126061" lon="12.302843">
        <ele>531.185</ele>
        <time>2021-12-10T14:56:05Z</time>
      </trkpt>
      <trkpt lat="43.125972" lon="12.302742">
        <ele>527.989</ele>
        <time>2021-12-10T14:56:45Z</time>
      </trkpt>
      <trkpt lat="43.125847" lon="12.302600">
        <ele>522.417</ele>
        <time>2021-12-10T14:57:25Z</time>
      </trkpt>
      <trkpt lat="43.125765" lon="12.302544">
        <ele>520.408</ele>
        <time>2021-12-10T14:58:05Z</time>
      </trkpt>
      <trkpt lat="43.125659" lon="12.302481">
        <ele>518.597</ele>
        <time>2021-12-10T14:58:45Z</time>
      </trkpt>
      <trkpt lat="43.125545" lon="12.302399">
        <ele>516.468</ele>
        <time>2021-12-10T14:59:25Z</time>
      </trkpt>
      <trkpt lat="43.125435" lon="12.302283">
        <ele>512.693</ele>
        <time>2021-12-10T15:00:05Z</time>
      </trkpt>
      <trkpt lat="43.125323" lon="12.302215">
        <ele>510.149</ele>
        <time>2021-12-10T15:00:45Z</time>
      </trkpt>
      <trkpt lat="43.125245" lon="12.302152">
        <ele>507.922</ele>
        <time>2021-12-10T15:01:25Z</time>
      </trkpt>
      <trkpt lat="43.125217" lon="12.302133">
        <ele>507.149</ele>
        <time>2021-12-10T15:02:05Z</time>
      </trkpt>
      <trkpt lat="43.125245" lon="12.302038">
        <ele>505.026</ele>
        <time>2021-12-10T15:02:45Z</time>
      </trkpt>
      <trkpt lat="43.125284" lon="12.301941">
        <ele>503.083</ele>
        <time>2021-12-10T15:03:25Z</time>
      </trkpt>
      <trkpt lat="43.125309" lon="12.301860">
        <ele>501.418</ele>
        <time>2021-12-10T15:04:05Z</time>
      </trkpt>
      <trkpt lat="43.125318" lon="12.301792">
        <ele>500.098</ele>
        <time>2021-12-10T15:04:45Z</time>
      </trkpt>
      <trkpt lat="43.125339" lon="12.301709">
        <ele>498.417</ele>
        <time>2021-12-10T15:05:25Z</time>
      </trkpt>
      <trkpt lat="43.125357" lon="12.301655">
        <ele>497.308</ele>
        <time>2021-12-10T15:06:05Z</time>
      </trkpt>
      <trkpt lat="43.125387" lon="12.301596">
        <ele>496.330</ele>
        <time>2021-12-10T15:06:45Z</time>
      </trkpt>
      <trkpt lat="43.125442" lon="12.301525">
        <ele>495.151</ele>
        <time>2021-12-10T15:07:25Z</time>
      </trkpt>
      <trkpt lat="43.125469" lon="12.301488">
        <ele>494.526</ele>
        <time>2021-12-10T15:08:05Z</time>
      </trkpt>
      <trkpt lat="43.125496" lon="12.301465">
        <ele>494.232</ele>
        <time>2021-12-10T15:08:45Z</time>
      </trkpt>
      <trkpt lat="43.125585" lon="12.301369">
        <ele>492.495</ele>
        <time>2021-12-10T15:09:25Z</time>
      </trkpt>
      <trkpt lat="43.125594" lon="12.301351">
        <ele>491.942</ele>
        <time>2021-12-10T15:10:05Z</time>
      </trkpt>
      <trkpt lat="43.125589" lon="12.301317">
        <ele>490.949</ele>
        <time>2021-12-10T15:10:45Z</time>
      </trkpt>
      <trkpt lat="43.125491" lon="12.301117">
        <ele>484.716</ele>
        <time>2021-12-10T15:11:25Z</time>
      </trkpt>
      <trkpt lat="43.125451" lon="12.301040">
        <ele>481.789</ele>
        <time>2021-12-10T15:12:05Z</time>
      </trkpt>
      <trkpt lat="43.125361" lon="12.300954">
        <ele>477.906</ele>
        <time>2021-12-10T15:12:45Z</time>
      </trkpt>
      <trkpt lat="43.125346" lon="12.300900">
        <ele>475.926</ele>
        <time>2021-12-10T15:13:25Z</time>
      </trkpt>
      <trkpt lat="43.125289" lon="12.300676">
        <ele>469.108</ele>
        <time>2021-12-10T15:14:05Z</time>
      </trkpt>
      <trkpt lat="43.125224" lon="12.300514">
        <ele>465.197</ele>
        <time>2021-12-10T15:14:45Z</time>
      </trkpt>
      <trkpt lat="43.125129" lon="12.300311">
        <ele>461.538</ele>
        <time>2021-12-10T15:15:25Z</time>
      </trkpt>
      <trkpt lat="43.125028" lon="12.300173">
        <ele>459.463</ele>
        <time>2021-12-10T15:16:05Z</time>
      </trkpt>
      <trkpt lat="43.124966" lon="12.300045">
        <ele>457.499</ele>
        <time>2021-12-10T15:16:45Z</time>
      </trkpt>
      <trkpt lat="43.124900" lon="12.299916">
        <ele>454.792</ele>
        <time>2021-12-10T15:17:25Z</time>
      </trkpt>
      <trkpt lat="43.124881" lon="12.299844">
        <ele>453.189</ele>
        <time>2021-12-10T15:18:05Z</time>
      </trkpt>
      <trkpt lat="43.124882" lon="12.299735">
        <ele>451.056</ele>
        <time>2021-12-10T15:18:45Z</time>
      </trkpt>
      <trkpt lat="43.124957" lon="12.299613">
        <ele>450.063</ele>
        <time>2021-12-10T15:19:25Z</time>
      </trkpt>
      <trkpt lat="43.124971" lon="12.299590">
        <ele>449.879</ele>
        <time>2021-12-10T15:20:05Z</time>
      </trkpt>
      <trkpt lat="43.124921" lon="12.299395">
        <ele>446.205</ele>
        <time>2021-12-10T15:20:45Z</time>
      </trkpt>
      <trkpt lat="43.124823" lon="12.299098">
        <ele>438.925</ele>
        <time>2021-12-10T15:21:25Z</time>
      </trkpt>
      <trkpt lat="43.124786" lon="12.298997">
        <ele>436.508</ele>
        <time>2021-12-10T15:22:05Z</time>
      </trkpt>
      <trkpt lat="43.124503" lon="12.298330">
        <ele>422.766</ele>
        <time>2021-12-10T15:22:45Z</time>
      </trkpt>
      <trkpt lat="43.124381" lon="12.298097">
        <ele>417.337</ele>
        <time>2021-12-10T15:23:25Z</time>
      </trkpt>
      <trkpt lat="43.124226" lon="12.297860">
        <ele>412.652</ele>
        <time>2021-12-10T15:24:05Z</time>
      </trkpt>
      <trkpt lat="43.124033" lon="12.297475">
        <ele>404.138</ele>
        <time>2021-12-10T15:24:45Z</time>
      </trkpt>
      <trkpt lat="43.123985" lon="12.297379">
        <ele>402.211</ele>
        <time>2021-12-10T15:25:25Z</time>
      </trkpt>
      <trkpt lat="43.123944" lon="12.297326">
        <ele>401.158</ele>
        <time>2021-12-10T15:26:05Z</time>
      </trkpt>
      <trkpt lat="43.123862" lon="12.297266">
        <ele>399.495</ele>
        <time>2021-12-10T15:26:45Z</time>
      </trkpt>
      <trkpt lat="43.123774" lon="12.297249">
        <ele>397.822</ele>
        <time>2021-12-10T15:27:25Z</time>
      </trkpt>
      <trkpt lat="43.123679" lon="12.297255">
        <ele>396.639</ele>
        <time>2021-12-10T15:28:05Z</time>
      </trkpt>
      <trkpt lat="43.123595" lon="12.297238">
        <ele>395.001</ele>
        <time>2021-12-10T15:28:45Z</time>
      </trkpt>
      <trkpt lat="43.123539" lon="12.297170">
        <ele>392.921</ele>
        <time>2021-12-10T15:29:25Z</time>
      </trkpt>
      <trkpt lat="43.123533" lon="12.297135">
        <ele>392.308</ele>
        <time>2021-12-10T15:30:05Z</time>
      </trkpt>
      <trkpt lat="43.123515" lon="12.297137">
        <ele>392.182</ele>
        <time>2021-12-10T15:30:45Z</time>
      </trkpt>
      <trkpt lat="43.123518" lon="12.297056">
        <ele>390.953</ele>
        <time>2021-12-10T15:31:25Z</time>
      </trkpt>
      <trkpt lat="43.123521" lon="12.296974">
        <ele>389.898</ele>
        <time>2021-12-10T15:32:05Z</time>
      </trkpt>
      <trkpt lat="43.123517" lon="12.296739">
        <ele>386.914</ele>
        <time>2021-12-10T15:32:45Z</time>
      </trkpt>
      <trkpt lat="43.123515" lon="12.296662">
        <ele>386.057</ele>
        <time>2021-12-10T15:33:25Z</time>
      </trkpt>
      <trkpt lat="43.123506" lon="12.296574">
        <ele>385.344</ele>
        <time>2021-12-10T15:34:05Z</time>
      </trkpt>
      <trkpt lat="43.123514" lon="12.296465">
        <ele>384.521</ele>
        <time>2021-12-10T15:34:45Z</time>
      </trkpt>
    </trkseg>
  </trk></gpx>